Time;durP1;ratioP1;P1;durP2;ratioP2;P2;SDS_P1;SDS_P2;PMS_P1;PMS_P2;Temp;Humidity;BMP_temperature;BMP_pressure;BME280_temperature;BME280_humidity;BME280_pressure;Samples;Min_cycle;Max_cycle;Signal;HPM_P1;HPM_P2
2022/09/02 00:01:24;;;;;;;2.70;1.73;;;;;;;;;;5034094;28;20526;-73
2022/09/02 00:03:53;;;;;;;2.03;1.40;;;;;;;;;;5032880;28;20529;-74
2022/09/02 00:06:21;;;;;;;2.30;1.50;;;;;;;;;;5033557;28;20493;-74
2022/09/02 00:08:48;;;;;;;2.70;1.60;;;;;;;;;;5032888;28;20914;-74
2022/09/02 00:11:17;;;;;;;1.80;1.60;;;;;;;;;;5033278;28;20470;-73
2022/09/02 00:13:45;;;;;;;1.40;1.30;;;;;;;;;;5032985;28;20538;-74
2022/09/02 00:16:12;;;;;;;2.00;1.77;;;;;;;;;;5032847;28;20935;-73
2022/09/02 00:18:40;;;;;;;3.23;1.33;;;;;;;;;;5033306;28;20481;-75
2022/09/02 00:21:07;;;;;;;2.33;1.50;;;;;;;;;;5033147;28;20537;-72
2022/09/02 00:23:37;;;;;;;2.60;1.40;;;;;;;;;;5033241;28;20479;-72
2022/09/02 00:26:05;;;;;;;1.67;1.57;;;;;;;;;;5033072;28;20488;-73
2022/09/02 00:28:32;;;;;;;6.17;1.90;;;;;;;;;;5037279;28;20901;-72
2022/09/02 00:30:59;;;;;;;1.47;1.37;;;;;;;;;;5036818;28;20461;-73
2022/09/02 00:33:26;;;;;;;1.50;1.40;;;;;;;;;;5036611;28;20501;-73
2022/09/02 00:35:54;;;;;;;2.63;1.70;;;;;;;;;;5036854;28;20451;-73
2022/09/02 00:38:21;;;;;;;2.00;1.67;;;;;;;;;;5036453;28;20512;-72
2022/09/02 00:40:51;;;;;;;1.57;1.20;;;;;;;;;;5036577;28;20537;-72
2022/09/02 00:43:26;;;;;;;3.17;1.30;;;;;;;;;;5037378;28;20439;-73
2022/09/02 00:45:54;;;;;;;1.67;1.40;;;;;;;;;;5036615;28;20487;-72
2022/09/02 00:48:21;;;;;;;1.40;1.30;;;;;;;;;;5037132;28;20764;-73
2022/09/02 00:50:49;;;;;;;1.70;1.50;;;;;;;;;;5036178;28;20533;-72
2022/09/02 00:53:17;;;;;;;2.40;1.37;;;;;;;;;;5036627;28;20453;-72
2022/09/02 00:55:46;;;;;;;1.47;1.37;;;;;;;;;;5036475;28;20468;-73
2022/09/02 00:58:17;;;;;;;6.63;1.67;;;;;;;;;;5036513;28;20541;-73
2022/09/02 01:00:46;;;;;;;1.60;1.50;;;;;;;;;;5036778;28;20541;-72
2022/09/02 01:03:14;;;;;;;1.90;1.50;;;;;;;;;;5036624;28;20470;-73
2022/09/02 01:05:44;;;;;;;3.80;1.40;;;;;;;;;;5036182;28;20485;-73
2022/09/02 01:08:12;;;;;;;1.90;1.40;;;;;;;;;;5036536;28;20435;-71
2022/09/02 01:10:39;;;;;;;2.70;1.30;;;;;;;;;;5035864;28;20444;-72
2022/09/02 01:13:09;;;;;;;7.17;1.40;;;;;;;;;;5036251;28;20446;-72
2022/09/02 01:15:39;;;;;;;3.07;1.70;;;;;;;;;;5036042;28;20525;-72
2022/09/02 01:18:08;;;;;;;2.03;1.50;;;;;;;;;;5035904;28;20525;-72
2022/09/02 01:20:35;;;;;;;2.20;1.60;;;;;;;;;;5035996;28;20481;-72
2022/09/02 01:23:04;;;;;;;2.33;1.33;;;;;;;;;;5035675;28;21051;-72
2022/09/02 01:25:34;;;;;;;3.90;1.60;;;;;;;;;;5035489;28;20485;-72
2022/09/02 01:28:02;;;;;;;1.27;1.17;;;;;;;;;;5035888;28;20452;-73
2022/09/02 01:30:30;;;;;;;1.73;1.47;;;;;;;;;;5035400;28;20530;-72
2022/09/02 01:32:57;;;;;;;2.60;1.50;;;;;;;;;;5035859;28;20442;-73
2022/09/02 01:35:25;;;;;;;3.47;1.70;;;;;;;;;;5035378;28;20541;-73
2022/09/02 01:37:54;;;;;;;3.57;3.23;;;;;;;;;;5035088;28;20951;-73
2022/09/02 01:40:24;;;;;;;4.60;4.20;;;;;;;;;;5034839;28;20478;-73
2022/09/02 01:42:54;;;;;;;3.43;3.10;;;;;;;;;;5035637;28;20534;-71
2022/09/02 01:45:21;;;;;;;2.47;2.27;;;;;;;;;;5035749;28;20565;-72
2022/09/02 01:47:48;;;;;;;1.77;1.67;;;;;;;;;;5035243;28;20529;-72
2022/09/02 01:50:16;;;;;;;2.53;2.33;;;;;;;;;;5035433;28;20474;-72
2022/09/02 01:52:43;;;;;;;9.10;1.70;;;;;;;;;;5035444;28;20526;-72
2022/09/02 01:55:10;;;;;;;1.50;1.40;;;;;;;;;;5035416;28;20446;-72
2022/09/02 01:57:39;;;;;;;3.57;1.50;;;;;;;;;;5035052;28;20494;-72
2022/09/02 02:00:08;;;;;;;1.67;1.57;;;;;;;;;;5035289;28;20533;-72
2022/09/02 02:02:35;;;;;;;2.63;1.57;;;;;;;;;;5035161;28;20443;-73
2022/09/02 02:05:02;;;;;;;8.20;1.70;;;;;;;;;;5035242;28;20489;-72
2022/09/02 02:07:29;;;;;;;4.53;1.60;;;;;;;;;;5035086;28;20852;-74
2022/09/02 02:09:57;;;;;;;4.57;1.87;;;;;;;;;;5034945;28;20569;-72
2022/09/02 02:12:24;;;;;;;3.00;1.87;;;;;;;;;;5035131;28;20541;-73
2022/09/02 02:14:53;;;;;;;3.80;1.53;;;;;;;;;;5035009;28;20529;-73
2022/09/02 02:17:20;;;;;;;1.50;1.40;;;;;;;;;;5034778;28;20538;-73
2022/09/02 02:19:47;;;;;;;2.30;1.67;;;;;;;;;;5035687;28;20855;-73
2022/09/02 02:22:15;;;;;;;2.20;1.70;;;;;;;;;;5034759;28;20527;-72
2022/09/02 02:24:42;;;;;;;6.43;1.53;;;;;;;;;;5034869;28;20510;-73
2022/09/02 02:27:09;;;;;;;1.50;1.40;;;;;;;;;;5034756;28;20462;-73
2022/09/02 02:29:37;;;;;;;2.57;2.10;;;;;;;;;;5034457;28;21002;-72
2022/09/02 02:32:06;;;;;;;4.50;2.00;;;;;;;;;;5034297;28;20539;-72
2022/09/02 02:34:33;;;;;;;2.90;1.73;;;;;;;;;;5034672;28;20478;-72
2022/09/02 02:37:01;;;;;;;2.77;1.80;;;;;;;;;;5034620;28;20492;-74
2022/09/02 02:39:28;;;;;;;7.00;1.30;;;;;;;;;;5034931;28;20781;-74
2022/09/02 02:41:55;;;;;;;1.50;1.40;;;;;;;;;;5034462;28;20435;-73
2022/09/02 02:44:23;;;;;;;2.83;1.80;;;;;;;;;;5034227;28;20447;-74
2022/09/02 02:46:50;;;;;;;3.60;2.00;;;;;;;;;;5034745;28;20788;-74
2022/09/02 02:49:19;;;;;;;4.20;1.70;;;;;;;;;;5033719;28;21012;-73
2022/09/02 02:51:46;;;;;;;4.00;1.73;;;;;;;;;;5033894;28;20543;-72
2022/09/02 02:54:14;;;;;;;2.13;1.67;;;;;;;;;;5034419;28;20550;-72
2022/09/02 02:56:41;;;;;;;4.30;1.70;;;;;;;;;;5033791;28;20458;-72
2022/09/02 02:59:08;;;;;;;1.50;1.40;;;;;;;;;;5033939;28;20529;-73
2022/09/02 03:01:36;;;;;;;1.77;1.67;;;;;;;;;;5034071;28;20829;-72
2022/09/02 03:04:03;;;;;;;2.00;1.80;;;;;;;;;;5033789;28;20493;-73
2022/09/02 03:06:32;;;;;;;2.00;1.53;;;;;;;;;;5033599;28;20519;-73
2022/09/02 03:08:59;;;;;;;1.60;1.50;;;;;;;;;;5033812;28;20480;-73
2022/09/02 03:11:27;;;;;;;1.80;1.70;;;;;;;;;;5033907;28;20871;-73
2022/09/02 03:13:54;;;;;;;3.00;1.40;;;;;;;;;;5033912;28;20439;-73
2022/09/02 03:16:22;;;;;;;2.27;1.90;;;;;;;;;;5033903;28;20441;-73
2022/09/02 03:18:50;;;;;;;2.30;1.90;;;;;;;;;;5034052;28;20527;-73
2022/09/02 03:21:18;;;;;;;2.93;1.60;;;;;;;;;;5033856;28;20454;-73
2022/09/02 03:23:47;;;;;;;1.60;1.50;;;;;;;;;;5033469;28;20529;-73
2022/09/02 03:26:15;;;;;;;1.53;1.40;;;;;;;;;;5033759;28;20532;-73
2022/09/02 03:28:43;;;;;;;7.63;1.73;;;;;;;;;;5033707;28;20517;-72
2022/09/02 03:31:14;;;;;;;2.37;1.40;;;;;;;;;;5033363;28;20490;-73
2022/09/02 03:33:42;;;;;;;4.70;1.50;;;;;;;;;;5033296;28;20459;-73
2022/09/02 03:36:09;;;;;;;2.23;1.60;;;;;;;;;;5033866;28;20525;-73
2022/09/02 03:38:36;;;;;;;5.30;1.30;;;;;;;;;;5033344;28;20495;-73
2022/09/02 03:41:05;;;;;;;3.67;1.70;;;;;;;;;;5034413;28;20522;-73
2022/09/02 03:43:32;;;;;;;8.40;1.90;;;;;;;;;;5033186;28;20448;-72
2022/09/02 03:45:59;;;;;;;2.50;1.73;;;;;;;;;;5033464;28;20482;-72
2022/09/02 03:48:28;;;;;;;2.67;1.70;;;;;;;;;;5033106;28;20533;-75
2022/09/02 03:50:55;;;;;;;2.13;1.70;;;;;;;;;;5033178;28;20458;-70
2022/09/02 03:53:22;;;;;;;1.53;1.40;;;;;;;;;;5033554;28;20542;-70
2022/09/02 03:55:50;;;;;;;3.50;1.80;;;;;;;;;;5033127;28;20501;-71
2022/09/02 03:58:19;;;;;;;2.70;2.23;;;;;;;;;;5032924;28;20477;-70
2022/09/02 04:00:50;;;;;;;2.70;1.77;;;;;;;;;;5032845;28;20443;-70
2022/09/02 04:03:17;;;;;;;2.13;1.87;;;;;;;;;;5036896;28;20508;-70
2022/09/02 04:05:47;;;;;;;1.97;1.80;;;;;;;;;;5037721;28;20474;-70
2022/09/02 04:08:14;;;;;;;2.57;1.60;;;;;;;;;;5036950;28;20778;-69
2022/09/02 04:10:41;;;;;;;2.07;1.80;;;;;;;;;;5037008;28;20522;-70
2022/09/02 04:13:08;;;;;;;3.10;1.90;;;;;;;;;;5037202;28;20490;-70
2022/09/02 04:15:43;;;;;;;3.13;1.70;;;;;;;;;;5036926;28;20530;-70
2022/09/02 04:21:14;;;;;;;2.23;1.70;;;;;;;;;;5036960;28;20405;-70
2022/09/02 04:23:42;;;;;;;6.00;1.70;;;;;;;;;;5037241;28;20883;-70
2022/09/02 04:26:10;;;;;;;2.00;1.67;;;;;;;;;;5037033;28;20474;-70
2022/09/02 04:28:37;;;;;;;2.40;1.70;;;;;;;;;;5036638;28;20450;-70
2022/09/02 04:31:07;;;;;;;4.73;1.90;;;;;;;;;;5036622;28;20474;-70
2022/09/02 04:33:35;;;;;;;1.60;1.50;;;;;;;;;;5036505;28;20447;-70
2022/09/02 04:36:05;;;;;;;3.67;1.70;;;;;;;;;;5036871;28;20447;-70
2022/09/02 04:38:32;;;;;;;2.50;1.60;;;;;;;;;;5036446;28;20939;-71
2022/09/02 04:41:00;;;;;;;4.50;1.80;;;;;;;;;;5036862;28;20527;-71
2022/09/02 04:43:27;;;;;;;5.23;2.00;;;;;;;;;;5036767;28;20457;-71
2022/09/02 04:45:56;;;;;;;2.20;1.60;;;;;;;;;;5036528;28;20505;-71
2022/09/02 04:48:24;;;;;;;2.13;1.90;;;;;;;;;;5036300;28;20882;-70
2022/09/02 04:50:52;;;;;;;2.67;1.90;;;;;;;;;;5036238;28;20955;-70
2022/09/02 04:53:19;;;;;;;1.77;1.60;;;;;;;;;;5036423;28;20928;-71
2022/09/02 04:55:47;;;;;;;2.30;2.10;;;;;;;;;;5036529;28;20657;-70
2022/09/02 04:58:15;;;;;;;2.40;1.80;;;;;;;;;;5036367;28;20553;-70
2022/09/02 05:00:42;;;;;;;4.07;1.63;;;;;;;;;;5036291;28;20452;-70
2022/09/02 05:03:10;;;;;;;2.07;1.77;;;;;;;;;;5036274;28;20851;-70
2022/09/02 05:05:39;;;;;;;3.70;2.00;;;;;;;;;;5036151;28;20494;-70
2022/09/02 05:08:06;;;;;;;1.87;1.77;;;;;;;;;;5036425;28;20537;-70
2022/09/02 05:10:34;;;;;;;4.67;2.17;;;;;;;;;;5035633;28;20562;-70
2022/09/02 05:13:02;;;;;;;8.83;2.30;;;;;;;;;;5035654;28;20941;-70
2022/09/02 05:15:29;;;;;;;6.10;1.70;;;;;;;;;;5035861;28;20440;-71
2022/09/02 05:17:56;;;;;;;2.20;2.00;;;;;;;;;;5035830;28;20940;-72
2022/09/02 05:20:24;;;;;;;7.10;1.90;;;;;;;;;;5035908;28;20448;-72
2022/09/02 05:22:53;;;;;;;2.97;2.00;;;;;;;;;;5035957;28;20936;-70
2022/09/02 05:25:21;;;;;;;1.90;1.80;;;;;;;;;;5035750;28;20439;-70
2022/09/02 05:27:49;;;;;;;5.20;2.93;;;;;;;;;;5035936;28;20866;-70
2022/09/02 05:30:16;;;;;;;2.40;2.20;;;;;;;;;;5035714;28;20813;-70
2022/09/02 05:32:43;;;;;;;2.27;1.90;;;;;;;;;;5035963;28;20471;-70
2022/09/02 05:35:10;;;;;;;3.67;2.03;;;;;;;;;;5035409;28;20440;-70
2022/09/02 05:37:38;;;;;;;8.03;2.00;;;;;;;;;;5035744;28;20474;-70
2022/09/02 05:40:07;;;;;;;6.40;2.77;;;;;;;;;;5035930;28;20481;-70
2022/09/02 05:42:36;;;;;;;2.90;1.80;;;;;;;;;;5035396;28;20474;-70
2022/09/02 05:45:03;;;;;;;2.77;2.47;;;;;;;;;;5035588;28;20474;-70
2022/09/02 05:47:30;;;;;;;2.10;1.90;;;;;;;;;;5035504;28;20489;-70
2022/09/02 05:50:00;;;;;;;2.13;2.03;;;;;;;;;;5035676;28;20811;-70
2022/09/02 05:52:27;;;;;;;5.07;3.97;;;;;;;;;;5035473;28;20466;-72
2022/09/02 05:54:55;;;;;;;2.30;2.10;;;;;;;;;;5035331;28;20573;-70
2022/09/02 05:57:24;;;;;;;3.50;2.10;;;;;;;;;;5035980;28;20455;-70
2022/09/02 05:59:54;;;;;;;7.93;2.97;;;;;;;;;;5035219;28;20451;-70
2022/09/02 06:02:22;;;;;;;5.13;2.43;;;;;;;;;;5035328;28;20435;-71
2022/09/02 06:04:50;;;;;;;5.70;2.20;;;;;;;;;;5034822;28;20464;-70
2022/09/02 06:07:19;;;;;;;5.13;2.43;;;;;;;;;;5035231;28;20535;-70
2022/09/02 06:09:46;;;;;;;4.47;2.50;;;;;;;;;;5034939;28;20530;-71
2022/09/02 06:12:14;;;;;;;3.13;2.30;;;;;;;;;;5034791;28;20455;-71
2022/09/02 06:14:42;;;;;;;1.90;1.80;;;;;;;;;;5035406;28;20440;-71
2022/09/02 06:17:10;;;;;;;3.10;2.13;;;;;;;;;;5034671;28;20459;-71
2022/09/02 06:19:37;;;;;;;4.83;2.57;;;;;;;;;;5035292;28;20799;-70
2022/09/02 06:22:05;;;;;;;3.07;1.93;;;;;;;;;;5034879;28;20550;-71
2022/09/02 06:24:32;;;;;;;3.83;2.40;;;;;;;;;;5034190;28;20431;-70
2022/09/02 06:27:00;;;;;;;3.40;2.10;;;;;;;;;;5034447;28;20486;-70
2022/09/02 06:29:28;;;;;;;2.17;1.97;;;;;;;;;;5035318;28;20788;-70
2022/09/02 06:31:57;;;;;;;4.80;1.80;;;;;;;;;;5034771;28;20434;-70
2022/09/02 06:34:26;;;;;;;2.60;2.03;;;;;;;;;;5034220;28;20446;-70
2022/09/02 06:36:53;;;;;;;5.80;2.47;;;;;;;;;;5034666;28;20921;-71
2022/09/02 06:39:22;;;;;;;2.40;1.90;;;;;;;;;;5034211;28;20505;-70
2022/09/02 06:41:49;;;;;;;6.60;2.00;;;;;;;;;;5034234;28;20434;-70
2022/09/02 06:44:17;;;;;;;2.50;2.30;;;;;;;;;;5034488;28;20533;-70
2022/09/02 06:46:46;;;;;;;2.23;2.03;;;;;;;;;;5034059;28;20980;-71
2022/09/02 06:49:15;;;;;;;2.87;2.00;;;;;;;;;;5034036;28;20526;-70
2022/09/02 06:51:44;;;;;;;5.27;3.80;;;;;;;;;;5035137;28;20503;-70
2022/09/02 06:54:13;;;;;;;4.73;4.20;;;;;;;;;;5034280;28;20534;-70
2022/09/02 06:56:40;;;;;;;4.13;1.90;;;;;;;;;;5034166;28;20501;-70
2022/09/02 06:59:07;;;;;;;4.87;2.20;;;;;;;;;;5033895;28;21040;-70
2022/09/02 07:01:35;;;;;;;2.00;1.90;;;;;;;;;;5033749;28;20450;-70
2022/09/02 07:06:51;;;;;;;3.87;2.00;;;;;;;;;;5033811;28;20816;-71
2022/09/02 07:09:19;;;;;;;2.10;1.93;;;;;;;;;;5033578;28;20479;-71
2022/09/02 07:11:47;;;;;;;1.93;1.83;;;;;;;;;;5033616;28;20543;-70
2022/09/02 07:14:14;;;;;;;2.37;2.07;;;;;;;;;;5033945;28;20860;-71
2022/09/02 07:16:44;;;;;;;3.40;2.70;;;;;;;;;;5033830;28;20444;-70
2022/09/02 07:19:12;;;;;;;4.13;2.27;;;;;;;;;;5033579;28;20442;-70
2022/09/02 07:21:40;;;;;;;4.73;1.63;;;;;;;;;;5033729;28;20525;-70
2022/09/02 07:24:09;;;;;;;1.60;1.50;;;;;;;;;;5033819;28;20453;-70
2022/09/02 07:26:36;;;;;;;4.77;1.87;;;;;;;;;;5033659;28;20479;-70
2022/09/02 07:29:05;;;;;;;6.23;2.30;;;;;;;;;;5033409;28;20442;-71
2022/09/02 07:31:33;;;;;;;5.90;2.43;;;;;;;;;;5033620;28;20453;-70
2022/09/02 07:34:00;;;;;;;2.83;1.70;;;;;;;;;;5033360;28;21022;-70
2022/09/02 07:36:27;;;;;;;2.70;2.33;;;;;;;;;;5032656;28;20522;-70
2022/09/02 07:38:55;;;;;;;3.87;2.33;;;;;;;;;;5033598;28;20450;-70
2022/09/02 07:41:24;;;;;;;5.67;2.70;;;;;;;;;;5033719;28;20481;-71
2022/09/02 07:43:51;;;;;;;2.63;2.30;;;;;;;;;;5033384;28;20966;-71
2022/09/02 07:46:19;;;;;;;4.53;2.27;;;;;;;;;;5033324;28;20860;-71
2022/09/02 07:48:48;;;;;;;2.07;1.90;;;;;;;;;;5033486;28;20571;-71
2022/09/02 07:51:16;;;;;;;3.37;1.97;;;;;;;;;;5032980;28;20540;-70
2022/09/02 07:53:44;;;;;;;6.73;2.33;;;;;;;;;;5033419;28;20443;-70
2022/09/02 07:56:12;;;;;;;3.43;2.30;;;;;;;;;;5033347;28;20589;-70
2022/09/02 07:58:41;;;;;;;8.63;2.27;;;;;;;;;;5033032;28;20442;-70
2022/09/02 08:01:09;;;;;;;3.33;1.80;;;;;;;;;;5033234;28;20439;-70
2022/09/02 08:03:38;;;;;;;2.20;2.00;;;;;;;;;;5032901;28;20448;-70
2022/09/02 08:06:06;;;;;;;7.63;2.23;;;;;;;;;;5033391;28;20498;-69
2022/09/02 08:08:33;;;;;;;2.60;2.10;;;;;;;;;;5032985;28;20463;-71
2022/09/02 08:11:01;;;;;;;2.70;1.60;;;;;;;;;;5033341;28;20432;-70
2022/09/02 08:13:28;;;;;;;5.03;2.30;;;;;;;;;;5032147;28;20537;-70
2022/09/02 08:15:57;;;;;;;2.13;1.90;;;;;;;;;;5033228;28;20477;-71
2022/09/02 08:18:24;;;;;;;3.70;1.90;;;;;;;;;;5032885;28;20449;-70
2022/09/02 08:20:52;;;;;;;6.83;2.50;;;;;;;;;;5033096;28;20444;-70
2022/09/02 08:23:19;;;;;;;5.20;2.20;;;;;;;;;;5033117;28;20869;-71
2022/09/02 08:25:47;;;;;;;4.23;2.17;;;;;;;;;;5032719;28;20927;-70
2022/09/02 08:28:14;;;;;;;4.17;2.40;;;;;;;;;;5033007;28;20916;-70
2022/09/02 08:30:42;;;;;;;5.63;3.60;;;;;;;;;;5033009;28;20445;-70
2022/09/02 08:33:10;;;;;;;4.23;2.50;;;;;;;;;;5032783;28;20440;-70
2022/09/02 08:35:38;;;;;;;4.40;2.27;;;;;;;;;;5033612;28;20535;-70
2022/09/02 08:38:06;;;;;;;3.47;2.20;;;;;;;;;;5032639;28;20446;-71
2022/09/02 08:40:36;;;;;;;9.07;2.30;;;;;;;;;;5033257;28;20458;-70
2022/09/02 08:43:05;;;;;;;2.47;2.20;;;;;;;;;;5032988;28;20526;-70
2022/09/02 08:45:36;;;;;;;2.90;2.03;;;;;;;;;;5032554;28;20533;-71
2022/09/02 08:48:09;;;;;;;7.70;2.60;;;;;;;;;;5034170;28;20475;-70
2022/09/02 08:50:39;;;;;;;1.87;1.63;;;;;;;;;;5036764;28;20524;-70
2022/09/02 08:53:08;;;;;;;2.50;2.30;;;;;;;;;;5036134;28;20964;-70
2022/09/02 08:55:38;;;;;;;5.50;2.07;;;;;;;;;;5036171;28;20956;-70
2022/09/02 08:58:06;;;;;;;5.20;2.60;;;;;;;;;;5036067;28;20478;-70
2022/09/02 09:00:36;;;;;;;2.63;1.73;;;;;;;;;;5036585;28;20875;-70
2022/09/02 09:03:09;;;;;;;3.87;2.23;;;;;;;;;;5036070;28;20419;-70
2022/09/02 09:05:43;;;;;;;2.70;2.23;;;;;;;;;;5036685;28;20521;-70
2022/09/02 09:08:15;;;;;;;7.40;2.90;;;;;;;;;;5036232;28;20560;-70
2022/09/02 09:10:46;;;;;;;2.10;1.90;;;;;;;;;;5035927;28;20431;-70
2022/09/02 09:13:24;;;;;;;3.63;2.10;;;;;;;;;;5035875;28;20430;-70
2022/09/02 09:15:55;;;;;;;3.40;2.47;;;;;;;;;;5035889;28;20475;-70
2022/09/02 09:18:24;;;;;;;3.90;2.60;;;;;;;;;;5035792;28;20464;-71
2022/09/02 09:20:53;;;;;;;3.30;2.40;;;;;;;;;;5035716;28;20481;-71
2022/09/02 09:23:26;;;;;;;3.87;2.90;;;;;;;;;;5035575;28;20535;-71
2022/09/02 09:25:56;;;;;;;3.40;2.67;;;;;;;;;;5035749;28;20520;-71
2022/09/02 09:28:23;;;;;;;2.30;2.00;;;;;;;;;;5035581;28;20503;-71
2022/09/02 09:30:50;;;;;;;2.50;2.17;;;;;;;;;;5036017;28;20437;-70
2022/09/02 09:33:18;;;;;;;6.37;2.30;;;;;;;;;;5035388;28;20444;-70
2022/09/02 09:35:49;;;;;;;5.70;2.40;;;;;;;;;;5035450;28;20482;-70
2022/09/02 09:38:28;;;;;;;3.93;2.43;;;;;;;;;;5035252;28;20446;-70
2022/09/02 09:41:06;;;;;;;3.50;2.60;;;;;;;;;;5035467;28;20941;-70
2022/09/02 09:43:33;;;;;;;3.40;1.80;;;;;;;;;;5035261;28;20434;-71
2022/09/02 09:46:20;;;;;;;5.27;2.57;;;;;;;;;;5036174;28;20568;-70
2022/09/02 09:48:50;;;;;;;4.80;2.83;;;;;;;;;;5035256;28;20465;-70
2022/09/02 09:51:17;;;;;;;5.07;1.87;;;;;;;;;;5035807;28;20441;-70
2022/09/02 09:53:46;;;;;;;3.27;2.13;;;;;;;;;;5035026;28;20439;-70
2022/09/02 09:56:25;;;;;;;7.57;1.90;;;;;;;;;;5035044;28;20536;-70
2022/09/02 09:58:53;;;;;;;5.30;2.90;;;;;;;;;;5034571;28;20457;-71
2022/09/02 10:01:21;;;;;;;4.03;3.40;;;;;;;;;;5034568;28;20446;-71
2022/09/02 10:03:51;;;;;;;8.77;3.57;;;;;;;;;;5035209;28;20461;-70
2022/09/02 10:06:19;;;;;;;2.40;2.20;;;;;;;;;;5035299;28;20487;-70
2022/09/02 10:08:52;;;;;;;3.47;2.30;;;;;;;;;;5034745;28;20852;-70
2022/09/02 10:11:22;;;;;;;2.27;2.07;;;;;;;;;;5035866;28;20458;-71
2022/09/02 10:13:49;;;;;;;3.20;2.27;;;;;;;;;;5034599;28;20869;-70
2022/09/02 10:16:24;;;;;;;4.97;2.20;;;;;;;;;;5035139;28;20794;-71
2022/09/02 10:18:53;;;;;;;2.90;1.90;;;;;;;;;;5034651;28;20434;-71
2022/09/02 10:21:30;;;;;;;8.30;2.47;;;;;;;;;;5035111;28;20529;-71
2022/09/02 10:24:03;;;;;;;3.97;2.50;;;;;;;;;;5034543;28;21014;-71
2022/09/02 10:26:37;;;;;;;2.50;1.90;;;;;;;;;;5034549;28;20423;-71
2022/09/02 10:29:25;;;;;;;4.53;2.73;;;;;;;;;;5034682;28;20473;-70
2022/09/02 10:31:56;;;;;;;3.97;2.80;;;;;;;;;;5034244;28;20868;-71
2022/09/02 10:34:27;;;;;;;4.13;2.17;;;;;;;;;;5034283;28;20481;-70
2022/09/02 10:37:06;;;;;;;5.23;2.33;;;;;;;;;;5034361;28;20513;-71
2022/09/02 10:39:39;;;;;;;4.50;2.43;;;;;;;;;;5034242;28;20508;-71
2022/09/02 10:42:16;;;;;;;2.97;2.67;;;;;;;;;;5034735;28;20431;-71
2022/09/02 10:44:46;;;;;;;2.70;2.40;;;;;;;;;;5034374;28;20435;-70
2022/09/02 10:47:17;;;;;;;7.40;2.83;;;;;;;;;;5034292;28;20534;-70
2022/09/02 10:49:53;;;;;;;5.77;2.93;;;;;;;;;;5034169;28;20907;-71
2022/09/02 10:52:28;;;;;;;9.10;3.10;;;;;;;;;;5033945;28;20927;-71
2022/09/02 10:55:00;;;;;;;2.83;2.50;;;;;;;;;;5034295;28;20454;-71
2022/09/02 10:57:30;;;;;;;4.80;2.30;;;;;;;;;;5034357;28;20435;-70
2022/09/02 11:00:02;;;;;;;4.20;2.27;;;;;;;;;;5034154;28;20476;-70
2022/09/02 11:02:32;;;;;;;4.90;3.10;;;;;;;;;;5034040;28;20488;-71
2022/09/02 11:05:01;;;;;;;2.30;2.10;;;;;;;;;;5034012;28;20437;-70
2022/09/02 11:07:30;;;;;;;2.90;2.53;;;;;;;;;;5033932;28;20489;-70
2022/09/02 11:10:01;;;;;;;2.57;2.37;;;;;;;;;;5033367;28;20821;-70
2022/09/02 11:12:31;;;;;;;4.33;2.10;;;;;;;;;;5033593;28;20431;-70
2022/09/02 11:15:03;;;;;;;3.83;1.87;;;;;;;;;;5033589;28;20457;-70
2022/09/02 11:17:34;;;;;;;3.43;2.33;;;;;;;;;;5034665;28;20816;-71
2022/09/02 11:20:04;;;;;;;2.97;2.20;;;;;;;;;;5033442;28;20426;-71
2022/09/02 11:22:39;;;;;;;3.13;2.40;;;;;;;;;;5033525;28;20423;-69
2022/09/02 11:25:13;;;;;;;6.90;2.80;;;;;;;;;;5033339;28;20426;-70
2022/09/02 11:27:42;;;;;;;2.30;2.20;;;;;;;;;;5033658;28;20565;-70
2022/09/02 11:30:12;;;;;;;3.63;2.27;;;;;;;;;;5033520;28;20461;-70
2022/09/02 11:32:42;;;;;;;2.47;2.27;;;;;;;;;;5033581;28;20430;-69
2022/09/02 11:35:11;;;;;;;2.60;2.40;;;;;;;;;;5033443;28;20436;-70
2022/09/02 11:37:42;;;;;;;2.60;2.40;;;;;;;;;;5033674;28;20435;-71
2022/09/02 11:40:13;;;;;;;4.50;3.87;;;;;;;;;;5033824;28;20456;-71
2022/09/02 11:42:48;;;;;;;2.70;2.47;;;;;;;;;;5033500;28;20427;-71
2022/09/02 11:45:20;;;;;;;2.17;1.90;;;;;;;;;;5033574;28;20518;-72
2022/09/02 11:47:55;;;;;;;2.80;2.10;;;;;;;;;;5033884;28;20824;-71
2022/09/02 11:50:38;;;;;;;2.17;2.07;;;;;;;;;;5033014;28;20431;-71
2022/09/02 11:53:12;;;;;;;4.40;2.53;;;;;;;;;;5033629;28;20420;-72
2022/09/02 11:55:42;;;;;;;2.50;2.30;;;;;;;;;;5032968;28;20514;-72
2022/09/02 11:58:10;;;;;;;2.93;2.30;;;;;;;;;;5033557;28;20513;-72
2022/09/02 12:00:57;;;;;;;9.43;2.77;;;;;;;;;;5032837;28;20473;-72
2022/09/02 12:03:28;;;;;;;2.50;2.30;;;;;;;;;;5033144;28;20535;-71
2022/09/02 12:06:09;;;;;;;3.47;2.30;;;;;;;;;;5033030;28;20437;-72
2022/09/02 12:09:10;;;;;;;2.87;2.60;;;;;;;;;;5033206;28;20599;-71
2022/09/02 12:11:46;;;;;;;6.10;3.57;;;;;;;;;;5033202;28;20438;-71
2022/09/02 12:14:33;;;;;;;2.90;2.70;;;;;;;;;;5033282;28;20448;-72
2022/09/02 12:17:02;;;;;;;3.27;2.50;;;;;;;;;;5033221;28;20933;-71
2022/09/02 12:19:40;;;;;;;5.03;2.30;;;;;;;;;;5033086;28;20855;-71
2022/09/02 12:22:41;;;;;;;3.20;2.40;;;;;;;;;;5033715;28;20577;-72
2022/09/02 12:25:27;;;;;;;2.67;2.23;;;;;;;;;;4976024;28;20514;-71
2022/09/02 12:28:09;;;;;;;7.40;2.40;;;;;;;;;;4975931;28;20581;-72
2022/09/02 12:31:07;;;;;;;6.13;3.50;;;;;;;;;;5017471;28;20477;-71
2022/09/02 12:33:36;;;;;;;2.90;2.30;;;;;;;;;;5037209;28;20812;-72
2022/09/02 12:36:04;;;;;;;2.57;2.37;;;;;;;;;;5036472;28;20484;-71
2022/09/02 12:38:35;;;;;;;2.17;2.03;;;;;;;;;;5036395;28;20554;-71
2022/09/02 12:41:29;;;;;;;5.00;2.30;;;;;;;;;;5036805;28;20903;-70
2022/09/02 12:44:14;;;;;;;3.07;2.40;;;;;;;;;;5036543;28;20458;-70
2022/09/02 12:47:11;;;;;;;4.23;2.37;;;;;;;;;;5036467;28;20522;-70
2022/09/02 12:49:45;;;;;;;3.23;2.00;;;;;;;;;;4975481;28;20472;-69
2022/09/02 12:52:13;;;;;;;2.50;2.30;;;;;;;;;;5025557;28;20920;-70
2022/09/02 12:54:43;;;;;;;5.83;1.97;;;;;;;;;;5036482;28;20529;-71
2022/09/02 12:57:15;;;;;;;2.40;2.20;;;;;;;;;;5036566;28;20438;-72
2022/09/02 12:59:42;;;;;;;2.43;1.90;;;;;;;;;;5037051;28;20437;-72
2022/09/02 13:02:20;;;;;;;4.40;2.60;;;;;;;;;;5036092;28;20447;-71
2022/09/02 13:04:53;;;;;;;2.57;2.13;;;;;;;;;;5036504;28;20429;-72
2022/09/02 13:07:38;;;;;;;2.10;1.90;;;;;;;;;;5036491;28;20513;-72
2022/09/02 13:10:16;;;;;;;3.40;2.30;;;;;;;;;;5035698;28;20528;-72
2022/09/02 13:13:01;;;;;;;3.50;2.10;;;;;;;;;;5036157;28;20465;-72
2022/09/02 13:15:37;;;;;;;2.77;2.27;;;;;;;;;;5036406;28;20495;-72
2022/09/02 13:18:22;;;;;;;3.20;2.60;;;;;;;;;;5036611;28;20467;-71
2022/09/02 13:20:58;;;;;;;3.87;2.30;;;;;;;;;;5005940;28;20445;-72
2022/09/02 13:23:43;;;;;;;3.77;2.53;;;;;;;;;;5036428;28;20510;-72
2022/09/02 13:26:15;;;;;;;3.47;2.47;;;;;;;;;;5026068;28;20507;-72
2022/09/02 13:29:06;;;;;;;2.40;1.93;;;;;;;;;;5036227;28;20531;-72
2022/09/02 13:31:34;;;;;;;3.77;1.90;;;;;;;;;;5020759;28;20464;-73
2022/09/02 13:34:03;;;;;;;3.00;2.47;;;;;;;;;;5036094;28;20525;-72
2022/09/02 13:36:35;;;;;;;2.90;2.00;;;;;;;;;;5035436;28;20502;-72
2022/09/02 13:39:23;;;;;;;3.63;2.37;;;;;;;;;;5035836;28;20457;-72
2022/09/02 13:41:51;;;;;;;4.80;2.17;;;;;;;;;;5032097;28;20955;-76
2022/09/02 13:44:21;;;;;;;2.20;2.00;;;;;;;;;;5035977;28;20484;-73
2022/09/02 13:46:50;;;;;;;3.67;2.00;;;;;;;;;;5035694;28;20461;-73
2022/09/02 13:49:21;;;;;;;2.30;2.10;;;;;;;;;;5035442;28;20528;-73
2022/09/02 13:51:52;;;;;;;2.20;2.00;;;;;;;;;;5035187;28;20436;-72
2022/09/02 13:54:37;;;;;;;4.23;2.30;;;;;;;;;;5035705;28;20517;-72
2022/09/02 13:57:06;;;;;;;2.07;1.97;;;;;;;;;;5035164;28;20458;-72
2022/09/02 13:59:34;;;;;;;2.87;2.30;;;;;;;;;;5035565;28;20545;-72
2022/09/02 14:02:16;;;;;;;2.40;2.20;;;;;;;;;;5035275;28;20850;-72
2022/09/02 14:04:43;;;;;;;3.00;2.00;;;;;;;;;;5036204;28;20506;-72
2022/09/02 14:07:13;;;;;;;2.20;2.10;;;;;;;;;;5034845;28;20999;-72
2022/09/02 14:09:41;;;;;;;4.93;2.50;;;;;;;;;;5034543;28;20685;-72
2022/09/02 14:12:08;;;;;;;6.50;2.30;;;;;;;;;;5034838;28;20470;-72
2022/09/02 14:14:36;;;;;;;2.30;2.20;;;;;;;;;;5034791;28;20487;-72
2022/09/02 14:17:19;;;;;;;4.00;1.87;;;;;;;;;;5035006;28;20875;-72
2022/09/02 14:19:48;;;;;;;5.70;2.83;;;;;;;;;;5034708;28;20940;-72
2022/09/02 14:22:27;;;;;;;3.63;1.83;;;;;;;;;;5034898;28;20447;-72
2022/09/02 14:24:55;;;;;;;3.53;2.07;;;;;;;;;;5034873;28;20467;-72
2022/09/02 14:27:23;;;;;;;3.00;1.80;;;;;;;;;;5034446;28;20526;-72
2022/09/02 14:29:56;;;;;;;4.90;2.20;;;;;;;;;;5034740;28;20484;-72
2022/09/02 14:32:24;;;;;;;2.33;2.07;;;;;;;;;;5034721;28;20511;-72
2022/09/02 14:35:06;;;;;;;2.80;2.00;;;;;;;;;;5034448;28;20494;-72
2022/09/02 14:37:47;;;;;;;3.30;2.17;;;;;;;;;;5034314;28;20475;-72
2022/09/02 14:40:16;;;;;;;4.07;2.30;;;;;;;;;;5034585;28;20473;-72
2022/09/02 14:42:45;;;;;;;2.20;1.90;;;;;;;;;;5034427;28;20453;-72
2022/09/02 14:45:13;;;;;;;3.80;2.33;;;;;;;;;;5033669;28;20422;-72
2022/09/02 14:47:41;;;;;;;5.40;2.47;;;;;;;;;;5034067;28;20442;-71
2022/09/02 14:50:16;;;;;;;3.97;2.30;;;;;;;;;;5034874;28;20508;-72
2022/09/02 14:52:50;;;;;;;7.30;2.23;;;;;;;;;;5033995;28;20410;-72
2022/09/02 14:55:35;;;;;;;5.00;2.33;;;;;;;;;;5034460;28;20554;-72
2022/09/02 14:58:03;;;;;;;2.17;2.07;;;;;;;;;;5034127;28;20539;-72
2022/09/02 15:00:31;;;;;;;2.30;2.10;;;;;;;;;;5033856;28;20950;-71
2022/09/02 15:02:59;;;;;;;7.63;2.03;;;;;;;;;;5034067;28;20470;-72
2022/09/02 15:05:27;;;;;;;5.63;2.23;;;;;;;;;;5033784;28;20445;-72
2022/09/02 15:07:55;;;;;;;3.00;2.30;;;;;;;;;;5034018;28;20442;-72